Aviation Digital Data Service (ADDS)

Output produced by METARs form (2353 UTC 18 July 2018)
found at http://www.aviationweather.gov/adds/metars/
 
LHKE 182315Z 31012KT 9999 FEW011 SCT060 BKN083 18/18 Q1008 TEMPO -RA RMK BLU
LHKE 182245Z 32012KT CAVOK 19/18 Q1008 NOSIG RMK BLU
LHKE 182215Z 31010KT CAVOK 18/18 Q1008 RERA TEMPO -RA RMK BLU
LHKE 182145Z 31010KT 9999 -RA BKN050 OVC083 19/18 Q1008 TEMPO CAVOK RMK BLU
LHKE 182115Z 31012KT 280V340 9999 -RA BKN060 OVC083 19/18 Q1008 TEMPO CAVOK RMK BLU
LHKE 182045Z 31012KT CAVOK 19/18 Q1008 TEMPO -RA RMK BLU
LHKE 182021Z 31012KT 9999 -RA BKN083 19/18 Q1008 TEMPO CAVOK RMK BLU
LHKE 182015Z 31012KT CAVOK 20/17 Q1008 TEMPO -RA RMK BLU
LHKE 181945Z 31014KT CAVOK 20/17 Q1008 NOSIG RMK BLU
LHKE 181915Z 31016KT CAVOK 20/17 Q1008 RERA NOSIG RMK BLU
LHKE 181845Z 31019KT 9999 -RA FEW033 BKN083 21/16 Q1007 TEMPO CAVOK RMK BLU
LHKE 181815Z 31017KT 9999 SCT033 BKN083 BKN200 21/16 Q1007 TEMPO -RA RMK BLU